METAR - Iceland

Last updated 17.10.2021 - at. 10:38

SIGMET for the last six hours

BIRD SIGMET A01 VALID 170830/171230 BIRK- BIRD REYKJAVIK CTA SEV TURB FCST WI N6350 W01900 - N6300 W01910 - N6310 W02220 - N6410 W01930 - N6350 W01900 SFC/FL070 STNR INTSF

METAR from the last three hours

From October 1 2021, runway conditions will not appear in METAR messages.
Instead ISAVIA will show SNOWTAM here: SNOWTAM | Isavia.

AerodromeTimeMessage
BIAR2021-10-17 10.00METAR BIAR 171000Z 00000KT 5000 -SN FEW015 BKN027 OVC040 M01/M02 Q1018
BIAR2021-10-17 09.00METAR BIAR 170900Z 00000KT 9000 -SN BKN035 OVC050 M01/M02 Q1018
BIAR2021-10-17 08.00METAR BIAR 170800Z 00000KT 9999 -SN BKN028 OVC040 M01/M03 Q1018
BIBD2021-10-17 10.00METAR BIBD 171000Z 04022G32KT 9999 VCSH SCT020 BKN028 OVC035 02/M03 Q1014
BIBD2021-10-17 09.00METAR BIBD 170900Z 04022G32KT 9999 VCSH SCT020 BKN028 OVC035 01/M03 Q1015
BIEG2021-10-17 10.00METAR BIEG 171000Z 09002KT 9999 FEW030 SCT035 BKN045 M02/M03 Q1019
BIEG2021-10-17 09.00METAR BIEG 170900Z 00000KT 9999 FEW035 SCT050 BKN100 M04/M05 Q1019
BIEG2021-10-17 08.00METAR BIEG 170800Z 00000KT 9999 FEW037 BKN100 M05/M05 Q1018
BIGR2021-10-17 10.00METAR BIGR 171000Z 08011G21KT 9999 SCT025 BKN040 02/M03 Q1019
BIGR2021-10-17 09.00METAR BIGR 170900Z 08010KT 9999 FEW028 BKN040 02/M03 Q1019
BIGR2021-10-17 08.00METAR BIGR 170800Z 06012KT 9999 FEW022 BKN035 01/M03 Q1019
BIIS2021-10-17 10.00METAR BIIS 171000Z 05020KT 9999 VCSH FEW014 FEW018 OVC022 02/M02 Q1016
BIKF2021-10-17 10.30METAR BIKF 171030Z 07020KT 9999 -RA BKN013 OVC018 02/01 Q1008
BIKF2021-10-17 10.00METAR BIKF 171000Z 07022KT 9999 -RA BKN013 OVC018 02/01 Q1008
BIKF2021-10-17 09.30METAR BIKF 170930Z 07022KT 9999 -RA BKN011 OVC018 02/01 Q1009
BIKF2021-10-17 09.00METAR BIKF 170900Z 07023KT 9999 -RASN BKN008 OVC024 01/01 Q1009
BIKF2021-10-17 08.30METAR BIKF 170830Z 07023KT 9999 -RASN OVC008 01/01 Q1009
BIKF2021-10-17 08.00METAR BIKF 170800Z 07022KT 4000 RASN OVC005 01/01 Q1009
BIRK2021-10-17 10.00METAR BIRK 171000Z 08015KT 9999 -RASN BKN012 OVC030 02/M01 Q1009
BIRK2021-10-17 09.00METAR BIRK 170900Z 06017G27KT 9999 -SN BKN007 OVC032 01/M01 Q1009
BIRK2021-10-17 08.00METAR BIRK 170800Z 06014KT 7000 -SN OVC020 01/M01 Q1009
BIVM2021-10-17 10.00METAR BIVM 171000Z 11036G50KT 5000 OVC010 03/02 Q1007
BIVM2021-10-17 09.00METAR BIVM 170900Z 11036G50KT 5000 BKN012 03/02 Q1007





Other related web sites


This website is built with Eplica CMS